createdAt,value
2023-03-16T00:00:54.493Z,11.30
2023-03-16T00:03:22.033Z,11.45
2023-03-16T00:05:51.280Z,11.33
2023-03-16T00:08:19.744Z,11.32
2023-03-16T00:10:47.719Z,11.43
2023-03-16T00:13:17.305Z,11.40
2023-03-16T00:15:56.386Z,11.33
2023-03-16T00:18:29.082Z,11.33
2023-03-16T00:20:59.466Z,11.24
2023-03-16T00:23:29.773Z,11.35
2023-03-16T00:25:59.345Z,11.47
2023-03-16T00:28:29.043Z,11.31
2023-03-16T00:31:02.358Z,11.24
2023-03-16T00:33:30.484Z,11.27
2023-03-16T00:36:03.935Z,11.18
2023-03-16T00:38:34.937Z,11.17
2023-03-16T00:41:07.737Z,11.24
2023-03-16T00:43:44.024Z,11.34
2023-03-16T00:46:14.438Z,11.31
2023-03-16T00:48:44.857Z,11.31
2023-03-16T00:51:15.413Z,11.30
2023-03-16T00:53:44.569Z,11.28
2023-03-16T00:56:13.837Z,11.32
2023-03-16T00:58:43.365Z,11.33
2023-03-16T01:01:19.907Z,11.18
2023-03-16T01:03:48.742Z,11.26
2023-03-16T01:06:17.221Z,11.31
2023-03-16T01:08:45.054Z,11.31
2023-03-16T01:11:17.900Z,11.26
2023-03-16T01:13:47.427Z,11.38
2023-03-16T01:16:19.050Z,11.25
2023-03-16T01:18:50.041Z,11.24
2023-03-16T01:21:17.809Z,11.14
2023-03-16T01:23:45.364Z,11.13
2023-03-16T01:26:13.188Z,11.20
2023-03-16T01:28:40.676Z,11.30
2023-03-16T01:31:10.642Z,11.22
2023-03-16T01:33:39.025Z,11.04
2023-03-16T01:36:15.184Z,11.13
2023-03-16T01:39:13.173Z,11.05
2023-03-16T01:41:47.102Z,11.00
2023-03-16T01:44:22.655Z,11.09
2023-03-16T01:46:51.020Z,11.17
2023-03-16T01:49:24.015Z,11.13
2023-03-16T01:52:22.964Z,11.27
2023-03-16T01:54:54.579Z,11.17
2023-03-16T01:57:26.212Z,11.14
2023-03-16T01:59:53.862Z,11.16
2023-03-16T02:02:25.564Z,10.99
2023-03-16T02:05:04.165Z,10.95
2023-03-16T02:07:37.996Z,10.91
2023-03-16T02:10:07.728Z,10.74
2023-03-16T02:12:36.321Z,10.69
2023-03-16T02:15:05.026Z,10.64
2023-03-16T02:17:35.430Z,10.61
2023-03-16T02:20:26.403Z,10.53
2023-03-16T02:22:55.002Z,10.51
2023-03-16T02:25:26.493Z,10.34
2023-03-16T02:28:19.175Z,10.17
2023-03-16T02:30:48.062Z,10.13
2023-03-16T02:33:18.203Z,10.25
2023-03-16T02:35:45.860Z,10.08
2023-03-16T02:38:13.427Z,10.07
2023-03-16T02:41:00.871Z,10.23
2023-03-16T02:43:33.617Z,10.15
2023-03-16T02:46:11.771Z,10.11
2023-03-16T02:49:00.138Z,10.16
2023-03-16T02:51:27.715Z,10.10
2023-03-16T02:53:55.356Z,9.97
2023-03-16T02:56:23.991Z,10.02
2023-03-16T02:58:51.393Z,9.92
2023-03-16T03:01:20.652Z,9.97
2023-03-16T03:03:49.441Z,9.81
2023-03-16T03:06:17.100Z,9.73
2023-03-16T03:08:44.568Z,9.65
2023-03-16T03:11:12.740Z,9.64
2023-03-16T03:13:40.196Z,9.82
2023-03-16T03:16:14.495Z,9.79
2023-03-16T03:18:42.630Z,9.71
2023-03-16T03:21:10.208Z,9.63
2023-03-16T03:23:37.766Z,9.68
2023-03-16T03:26:08.304Z,9.65
2023-03-16T03:28:35.973Z,9.56
2023-03-16T03:31:03.581Z,9.50
2023-03-16T03:33:33.750Z,9.50
2023-03-16T03:36:02.229Z,9.68
2023-03-16T03:38:35.457Z,9.70
2023-03-16T03:41:04.082Z,9.43
2023-03-16T03:43:34.779Z,9.55
2023-03-16T03:46:03.934Z,9.56
2023-03-16T03:48:34.141Z,9.55
2023-03-16T03:51:02.948Z,9.58
2023-03-16T03:53:33.072Z,9.49
2023-03-16T03:56:26.872Z,9.48
2023-03-16T03:58:54.678Z,9.51
2023-03-16T04:01:45.156Z,9.56
2023-03-16T04:04:12.757Z,9.63
2023-03-16T04:06:40.246Z,9.45
2023-03-16T04:09:08.482Z,9.47
2023-03-16T04:11:35.924Z,9.44
2023-03-16T04:14:03.998Z,9.36
2023-03-16T04:16:31.473Z,9.42
2023-03-16T04:18:58.983Z,9.37
2023-03-16T04:21:26.461Z,9.39
2023-03-16T04:23:54.554Z,9.28
2023-03-16T04:26:27.137Z,9.22
2023-03-16T04:28:55.097Z,9.14
2023-03-16T04:31:23.168Z,9.14
2023-03-16T04:33:54.682Z,9.10
2023-03-16T04:36:24.309Z,9.11
2023-03-16T04:38:52.306Z,9.02
2023-03-16T04:41:20.216Z,9.12
2023-03-16T04:44:13.844Z,9.12
2023-03-16T04:46:41.486Z,9.08
2023-03-16T04:49:11.188Z,9.21
2023-03-16T04:51:40.850Z,9.13
2023-03-16T04:54:11.403Z,9.11
2023-03-16T04:56:41.907Z,9.07
2023-03-16T04:59:20.477Z,9.10
2023-03-16T05:01:55.184Z,9.17
2023-03-16T05:04:24.677Z,9.17
2023-03-16T05:06:52.365Z,9.06
2023-03-16T05:09:23.857Z,9.13
2023-03-16T05:11:51.462Z,9.12
2023-03-16T05:14:19.559Z,9.12
2023-03-16T05:17:09.894Z,9.16
2023-03-16T05:19:37.587Z,9.12
2023-03-16T05:22:05.267Z,9.08
2023-03-16T05:24:33.118Z,9.19
2023-03-16T05:27:03.501Z,9.18
2023-03-16T05:29:36.985Z,9.16
2023-03-16T05:32:04.795Z,9.11
2023-03-16T05:34:33.054Z,9.13
2023-03-16T05:37:01.060Z,9.07
2023-03-16T05:39:30.889Z,9.10
2023-03-16T05:41:58.552Z,9.02
2023-03-16T05:44:40.512Z,9.03
2023-03-16T05:47:36.721Z,9.02
2023-03-16T05:50:09.267Z,8.97
2023-03-16T05:52:41.463Z,8.96
2023-03-16T05:55:18.715Z,8.99
2023-03-16T05:57:51.663Z,9.08
2023-03-16T06:00:20.973Z,9.11
2023-03-16T06:02:57.567Z,9.10
2023-03-16T06:05:32.227Z,9.20
2023-03-16T06:07:59.750Z,9.10
2023-03-16T06:10:28.030Z,9.16
2023-03-16T06:12:57.099Z,9.23
2023-03-16T06:15:26.667Z,9.20
2023-03-16T06:17:55.197Z,9.29
2023-03-16T06:20:22.717Z,9.17
2023-03-16T06:22:50.126Z,9.29
2023-03-16T06:25:17.787Z,9.27
2023-03-16T06:27:46.736Z,9.36
2023-03-16T06:30:17.532Z,9.24
2023-03-16T06:32:47.897Z,9.30
2023-03-16T06:35:15.566Z,9.25
2023-03-16T06:37:50.251Z,9.43
2023-03-16T06:40:41.468Z,9.40
2023-03-16T06:43:09.180Z,9.50
2023-03-16T06:45:36.905Z,9.45
2023-03-16T06:48:05.142Z,9.45
2023-03-16T06:50:32.677Z,9.57
2023-03-16T06:53:00.303Z,9.75
2023-03-16T06:55:31.631Z,10.09
2023-03-16T06:58:02.039Z,10.63
2023-03-16T07:00:31.706Z,11.28
2023-03-16T07:03:00.523Z,12.23
2023-03-16T07:05:29.955Z,12.67
2023-03-16T07:07:59.053Z,12.60
2023-03-16T07:10:27.732Z,12.22
2023-03-16T07:12:55.531Z,12.44
2023-03-16T07:15:26.506Z,12.94
2023-03-16T07:17:56.349Z,13.34
2023-03-16T07:20:24.700Z,13.63
2023-03-16T07:22:52.822Z,13.68
2023-03-16T07:25:21.494Z,13.46
2023-03-16T07:27:54.000Z,13.11
2023-03-16T07:30:27.821Z,12.97
2023-03-16T07:32:55.959Z,13.57
2023-03-16T07:35:26.689Z,14.33
2023-03-16T07:37:55.477Z,14.86
2023-03-16T07:40:24.664Z,15.08
2023-03-16T07:42:54.736Z,15.18
2023-03-16T07:45:35.178Z,15.30
2023-03-16T07:48:04.243Z,15.36
2023-03-16T07:50:48.597Z,15.32
2023-03-16T07:53:19.301Z,14.93
2023-03-16T07:55:51.777Z,14.84
2023-03-16T07:58:19.775Z,14.72
2023-03-16T08:00:49.742Z,14.93
2023-03-16T08:03:17.389Z,15.55
2023-03-16T08:05:45.974Z,16.10
2023-03-16T08:08:16.399Z,16.60
2023-03-16T08:10:44.292Z,16.69
2023-03-16T08:13:16.052Z,16.74
2023-03-16T08:15:58.691Z,16.79
2023-03-16T08:18:39.023Z,16.96
2023-03-16T08:21:07.244Z,16.86
2023-03-16T08:23:36.223Z,16.62
2023-03-16T08:26:09.047Z,16.30
2023-03-16T08:28:38.404Z,15.84
2023-03-16T08:31:10.748Z,15.65
2023-03-16T08:33:54.373Z,15.82
2023-03-16T08:36:25.916Z,16.12
2023-03-16T08:39:06.709Z,16.24
2023-03-16T08:41:43.588Z,16.59
2023-03-16T08:44:24.265Z,16.56
2023-03-16T08:46:52.801Z,16.41
2023-03-16T08:49:21.413Z,16.24
2023-03-16T08:51:57.615Z,16.15
2023-03-16T08:54:25.123Z,15.89
2023-03-16T08:56:52.468Z,15.80
2023-03-16T08:59:29.443Z,15.77
2023-03-16T09:01:58.742Z,15.67
2023-03-16T09:04:29.413Z,15.43
2023-03-16T09:07:08.483Z,15.40
2023-03-16T09:09:36.889Z,15.24
2023-03-16T09:12:07.123Z,15.09
2023-03-16T09:14:37.484Z,15.09
2023-03-16T09:17:05.272Z,14.96
2023-03-16T09:19:50.075Z,15.07
2023-03-16T09:22:19.907Z,15.35
2023-03-16T09:24:48.760Z,15.49
2023-03-16T09:27:16.888Z,15.67
2023-03-16T09:29:45.583Z,15.68
2023-03-16T09:32:14.318Z,15.46
2023-03-16T09:34:42.291Z,15.32
2023-03-16T09:37:09.960Z,15.05
2023-03-16T09:39:38.319Z,14.99
2023-03-16T09:42:19.380Z,15.14
2023-03-16T09:45:06.412Z,15.32
2023-03-16T09:47:36.816Z,15.51
2023-03-16T09:50:08.757Z,15.65
2023-03-16T09:53:02.721Z,15.63
2023-03-16T09:55:38.943Z,15.39
2023-03-16T09:58:19.156Z,15.28
2023-03-16T10:01:37.828Z,15.14
2023-03-16T10:04:11.687Z,15.27
2023-03-16T10:06:52.323Z,15.22
2023-03-16T10:09:47.574Z,15.20
2023-03-16T10:12:16.203Z,15.15
2023-03-16T10:14:57.883Z,14.99
2023-03-16T10:18:00.560Z,14.95
2023-03-16T10:20:33.308Z,14.79
2023-03-16T10:23:09.342Z,14.67
2023-03-16T10:25:50.363Z,14.64
2023-03-16T10:28:28.768Z,14.65
2023-03-16T10:30:59.527Z,14.67
2023-03-16T10:33:31.584Z,14.73
2023-03-16T10:36:09.467Z,14.82
2023-03-16T10:38:42.874Z,14.90
2023-03-16T10:41:22.580Z,14.92
2023-03-16T10:44:07.473Z,14.86
2023-03-16T10:47:00.085Z,14.89
2023-03-16T10:49:39.468Z,14.91
2023-03-16T10:52:16.420Z,14.97
2023-03-16T10:54:51.609Z,14.98
2023-03-16T10:57:26.003Z,15.06
2023-03-16T10:59:56.830Z,15.07
2023-03-16T11:02:32.994Z,15.16
2023-03-16T11:05:16.106Z,15.35
2023-03-16T11:08:20.701Z,15.48
2023-03-16T11:10:57.800Z,15.58
2023-03-16T11:13:32.270Z,15.69
2023-03-16T11:16:21.607Z,15.90
2023-03-16T11:18:54.266Z,16.12
2023-03-16T11:21:34.806Z,16.29
2023-03-16T11:24:04.401Z,16.35
2023-03-16T11:26:36.037Z,16.38
2023-03-16T11:29:13.046Z,16.40
2023-03-16T11:31:49.415Z,16.48
2023-03-16T11:34:20.120Z,16.30
2023-03-16T11:36:53.608Z,16.44
2023-03-16T11:39:21.197Z,16.39
2023-03-16T11:42:02.857Z,16.51
2023-03-16T11:44:44.817Z,16.68
2023-03-16T11:47:15.539Z,16.67
2023-03-16T11:49:52.840Z,16.81
2023-03-16T11:52:55.210Z,17.03
2023-03-16T11:56:20.147Z,17.13
2023-03-16T11:58:50.342Z,17.02
2023-03-16T12:01:59.798Z,17.27
2023-03-16T12:04:38.497Z,17.56
2023-03-16T12:07:18.429Z,17.81
2023-03-16T12:09:51.022Z,17.76
2023-03-16T12:12:34.668Z,17.60
2023-03-16T12:15:22.586Z,17.55
2023-03-16T12:17:55.705Z,17.44
2023-03-16T12:20:32.220Z,17.43
2023-03-16T12:23:02.797Z,17.42
2023-03-16T12:25:34.866Z,17.64
2023-03-16T12:28:07.811Z,17.94
2023-03-16T12:30:36.169Z,18.05
2023-03-16T12:33:09.545Z,18.16
2023-03-16T12:35:46.945Z,18.16
2023-03-16T12:38:35.601Z,18.17
2023-03-16T12:41:17.950Z,18.45
2023-03-16T12:44:04.362Z,18.59
2023-03-16T12:46:57.539Z,18.75
2023-03-16T12:49:26.778Z,18.70
2023-03-16T12:52:07.045Z,18.71
2023-03-16T12:54:34.963Z,18.79
2023-03-16T12:57:09.840Z,18.64
2023-03-16T12:59:43.240Z,18.62
2023-03-16T13:02:18.151Z,18.46
2023-03-16T13:04:51.563Z,18.48
2023-03-16T13:07:24.005Z,18.60
2023-03-16T13:10:04.621Z,18.77
2023-03-16T13:12:41.860Z,18.85
2023-03-16T13:15:22.797Z,18.93
2023-03-16T13:18:04.556Z,19.15
2023-03-16T13:20:35.108Z,19.23
2023-03-16T13:23:24.688Z,19.24
2023-03-16T13:26:03.412Z,19.41
2023-03-16T13:28:39.033Z,19.44
2023-03-16T13:31:21.796Z,19.28
2023-03-16T13:33:55.788Z,19.33
2023-03-16T13:36:25.705Z,19.16
2023-03-16T13:39:03.565Z,19.20
2023-03-16T13:41:31.452Z,19.14
2023-03-16T13:43:58.929Z,19.10
2023-03-16T13:46:30.388Z,19.16
2023-03-16T13:49:00.951Z,19.15
2023-03-16T13:51:31.684Z,19.23
2023-03-16T13:54:06.681Z,19.26
2023-03-16T13:56:34.775Z,19.27
2023-03-16T13:59:02.799Z,19.24
2023-03-16T14:01:32.825Z,19.35
2023-03-16T14:04:11.953Z,19.33
2023-03-16T14:06:41.594Z,19.30
2023-03-16T14:09:17.511Z,19.24
2023-03-16T14:11:48.713Z,19.19
2023-03-16T14:14:39.416Z,19.22
2023-03-16T14:17:17.099Z,19.28
2023-03-16T14:19:47.328Z,19.35
2023-03-16T14:22:18.237Z,19.32
2023-03-16T14:24:53.804Z,19.34
2023-03-16T14:27:25.559Z,19.19
2023-03-16T14:30:15.332Z,19.19
2023-03-16T14:32:57.051Z,19.20
2023-03-16T14:35:30.798Z,19.15
2023-03-16T14:38:22.728Z,19.16
2023-03-16T14:40:56.742Z,18.98
2023-03-16T14:43:31.592Z,18.97
2023-03-16T14:46:00.449Z,18.94
2023-03-16T14:48:30.363Z,18.97
2023-03-16T14:51:01.762Z,18.89
2023-03-16T14:53:30.167Z,18.90
2023-03-16T14:55:59.522Z,18.96
2023-03-16T14:58:27.049Z,19.11
2023-03-16T15:00:54.976Z,19.13
2023-03-16T15:03:35.607Z,19.26
2023-03-16T15:06:03.165Z,19.26
2023-03-16T15:08:33.800Z,19.31
2023-03-16T15:11:05.962Z,19.39
2023-03-16T15:13:57.195Z,19.43
2023-03-16T15:16:24.920Z,19.35
2023-03-16T15:18:52.694Z,19.41
2023-03-16T15:21:25.476Z,19.46
2023-03-16T15:23:53.024Z,19.51
2023-03-16T15:26:27.228Z,19.57
2023-03-16T15:28:56.746Z,19.64
2023-03-16T15:31:24.931Z,19.65
2023-03-16T15:33:52.531Z,19.63
2023-03-16T15:36:22.450Z,19.63
2023-03-16T15:38:53.543Z,19.59
2023-03-16T15:41:21.455Z,19.49
2023-03-16T15:43:49.204Z,19.41
2023-03-16T15:46:17.054Z,19.36
2023-03-16T15:48:44.622Z,19.22
2023-03-16T15:51:26.509Z,19.21
2023-03-16T15:53:59.546Z,19.19
2023-03-16T15:56:30.356Z,19.16
2023-03-16T15:59:01.204Z,19.17
2023-03-16T16:01:35.020Z,19.20
2023-03-16T16:04:03.645Z,19.15
2023-03-16T16:06:31.941Z,19.13
2023-03-16T16:08:59.574Z,19.12
2023-03-16T16:11:28.565Z,19.03
2023-03-16T16:13:58.241Z,18.87
2023-03-16T16:16:31.994Z,18.77
2023-03-16T16:19:00.380Z,18.67
2023-03-16T16:21:32.784Z,18.55
2023-03-16T16:24:02.313Z,18.53
2023-03-16T16:26:50.514Z,18.52
2023-03-16T16:29:28.165Z,18.39
2023-03-16T16:31:55.941Z,18.36
2023-03-16T16:34:25.184Z,18.28
2023-03-16T16:36:57.322Z,18.18
2023-03-16T16:39:25.504Z,18.09
2023-03-16T16:41:55.366Z,18.06
2023-03-16T16:44:34.457Z,18.11
2023-03-16T16:47:03.695Z,18.06
2023-03-16T16:49:31.571Z,17.96
2023-03-16T16:51:59.712Z,17.95
2023-03-16T16:54:31.716Z,17.86
2023-03-16T16:57:00.841Z,17.76
2023-03-16T16:59:37.853Z,17.77
2023-03-16T17:02:23.271Z,17.64
2023-03-16T17:04:51.008Z,17.60
2023-03-16T17:07:18.613Z,17.50
2023-03-16T17:09:46.558Z,17.42
2023-03-16T17:12:21.401Z,17.43
2023-03-16T17:14:50.657Z,17.23
2023-03-16T17:17:18.790Z,17.07
2023-03-16T17:19:48.275Z,17.11
2023-03-16T17:22:28.636Z,16.97
2023-03-16T17:24:56.978Z,16.89
2023-03-16T17:27:28.641Z,16.74
2023-03-16T17:29:57.881Z,16.69
2023-03-16T17:32:25.889Z,16.64
2023-03-16T17:34:53.545Z,16.57
2023-03-16T17:37:23.372Z,16.50
2023-03-16T17:39:52.106Z,16.46
2023-03-16T17:42:20.519Z,16.47
2023-03-16T17:44:51.000Z,16.34
2023-03-16T17:47:26.622Z,16.31
2023-03-16T17:49:57.180Z,16.18
2023-03-16T17:52:26.576Z,16.28
2023-03-16T17:54:54.900Z,16.13
2023-03-16T17:57:27.579Z,16.05
2023-03-16T17:59:55.919Z,16.00
2023-03-16T18:02:41.677Z,15.86
2023-03-16T18:05:25.684Z,15.83
2023-03-16T18:07:54.113Z,15.71
2023-03-16T18:10:26.297Z,15.59
2023-03-16T18:13:03.802Z,15.44
2023-03-16T18:15:33.985Z,15.50
2023-03-16T18:18:02.484Z,15.33
2023-03-16T18:20:36.594Z,15.26
2023-03-16T18:23:28.244Z,15.18
2023-03-16T18:26:01.276Z,15.22
2023-03-16T18:28:30.519Z,15.09
2023-03-16T18:30:58.869Z,15.08
2023-03-16T18:33:26.417Z,14.98
2023-03-16T18:35:57.068Z,14.97
2023-03-16T18:38:38.424Z,14.95
2023-03-16T18:41:18.248Z,14.94
2023-03-16T18:43:47.330Z,14.94
2023-03-16T18:46:30.436Z,14.81
2023-03-16T18:49:01.526Z,14.72
2023-03-16T18:51:30.492Z,14.76
2023-03-16T18:53:58.522Z,14.64
2023-03-16T18:56:28.671Z,14.56
2023-03-16T18:58:57.123Z,14.50
2023-03-16T19:01:30.557Z,14.49
2023-03-16T19:04:00.150Z,14.53
2023-03-16T19:06:31.379Z,14.53
2023-03-16T19:09:04.299Z,14.36
2023-03-16T19:11:33.507Z,14.33
2023-03-16T19:14:01.452Z,14.32
2023-03-16T19:16:29.097Z,14.30
2023-03-16T19:18:56.511Z,14.17
2023-03-16T19:21:24.148Z,14.17
2023-03-16T19:23:57.493Z,14.22
2023-03-16T19:26:25.324Z,14.21
2023-03-16T19:28:52.824Z,14.21
2023-03-16T19:31:27.630Z,14.17
2023-03-16T19:33:56.932Z,14.08
2023-03-16T19:36:30.516Z,14.25
2023-03-16T19:38:59.012Z,14.33
2023-03-16T19:41:30.978Z,14.24
2023-03-16T19:44:04.138Z,14.33
2023-03-16T19:46:32.044Z,14.22
2023-03-16T19:48:59.455Z,14.16
2023-03-16T19:51:29.232Z,14.11
2023-03-16T19:53:56.782Z,14.13
2023-03-16T19:56:26.853Z,14.30
2023-03-16T19:58:57.939Z,14.15
2023-03-16T20:01:32.587Z,14.13
2023-03-16T20:04:00.603Z,14.21
2023-03-16T20:06:28.018Z,14.24
2023-03-16T20:08:55.619Z,14.21
2023-03-16T20:11:28.595Z,14.30
2023-03-16T20:13:57.505Z,14.31
2023-03-16T20:16:36.075Z,14.33
2023-03-16T20:19:12.366Z,14.20
2023-03-16T20:21:39.927Z,14.23
2023-03-16T20:24:15.477Z,14.24
2023-03-16T20:26:44.316Z,14.19
2023-03-16T20:29:21.090Z,14.07
2023-03-16T20:31:49.301Z,14.12
2023-03-16T20:34:26.661Z,14.08
2023-03-16T20:36:54.381Z,13.97
2023-03-16T20:39:22.216Z,13.92
2023-03-16T20:41:50.896Z,14.01
2023-03-16T20:44:19.824Z,14.14
2023-03-16T20:46:47.811Z,14.12
2023-03-16T20:49:21.502Z,14.12
2023-03-16T20:51:50.316Z,14.03
2023-03-16T20:54:17.832Z,13.99
2023-03-16T20:56:45.539Z,13.90
2023-03-16T20:59:20.327Z,13.78
2023-03-16T21:01:48.137Z,13.76
2023-03-16T21:04:27.701Z,13.74
2023-03-16T21:06:56.976Z,13.77
2023-03-16T21:09:24.510Z,13.81
2023-03-16T21:11:52.372Z,13.88
2023-03-16T21:14:24.133Z,13.82
2023-03-16T21:16:53.624Z,13.82
2023-03-16T21:19:23.407Z,13.86
2023-03-16T21:21:51.637Z,13.86
2023-03-16T21:24:19.212Z,13.94
2023-03-16T21:26:47.648Z,14.02
2023-03-16T21:29:21.379Z,14.03
2023-03-16T21:31:49.559Z,14.06
2023-03-16T21:34:30.794Z,14.04
2023-03-16T21:36:59.404Z,13.98
2023-03-16T21:39:29.373Z,14.06
2023-03-16T21:41:57.282Z,13.87
2023-03-16T21:44:24.658Z,13.79
2023-03-16T21:46:52.237Z,13.78
2023-03-16T21:49:19.899Z,13.76
2023-03-16T21:51:49.819Z,13.72
2023-03-16T21:54:19.281Z,13.65
2023-03-16T21:56:48.031Z,13.63
2023-03-16T21:59:15.686Z,13.58
2023-03-16T22:02:00.397Z,13.67
2023-03-16T22:04:29.660Z,13.57
2023-03-16T22:06:57.269Z,13.59
2023-03-16T22:09:28.940Z,13.47
2023-03-16T22:11:56.570Z,13.49
2023-03-16T22:14:23.934Z,13.61
2023-03-16T22:16:51.847Z,13.50
2023-03-16T22:19:19.416Z,13.43
2023-03-16T22:21:47.809Z,13.47
2023-03-16T22:24:19.271Z,13.41
2023-03-16T22:26:48.972Z,13.30
2023-03-16T22:29:30.184Z,13.47
2023-03-16T22:32:11.048Z,13.44
2023-03-16T22:34:46.182Z,13.30
2023-03-16T22:37:18.712Z,13.22
2023-03-16T22:39:46.231Z,13.11
2023-03-16T22:42:38.195Z,13.08
2023-03-16T22:45:24.460Z,13.11
2023-03-16T22:47:52.861Z,13.11
2023-03-16T22:50:22.341Z,13.07
2023-03-16T22:52:52.953Z,13.09
2023-03-16T22:55:24.770Z,13.08
2023-03-16T22:58:00.785Z,13.01
2023-03-16T23:00:28.901Z,13.09
2023-03-16T23:02:57.744Z,13.08
2023-03-16T23:05:28.518Z,13.18
2023-03-16T23:07:59.996Z,13.16
2023-03-16T23:10:30.632Z,13.37
2023-03-16T23:12:59.787Z,13.32
2023-03-16T23:15:30.175Z,13.28
2023-03-16T23:17:58.072Z,13.14
2023-03-16T23:20:31.848Z,13.06
2023-03-16T23:22:59.827Z,12.90
2023-03-16T23:25:27.605Z,12.87
2023-03-16T23:27:55.973Z,12.86
2023-03-16T23:30:26.019Z,12.97
2023-03-16T23:32:55.633Z,12.91
2023-03-16T23:35:28.870Z,12.82
2023-03-16T23:37:56.716Z,12.75
2023-03-16T23:40:27.511Z,12.77
2023-03-16T23:42:57.332Z,12.71
2023-03-16T23:45:34.754Z,12.66
2023-03-16T23:48:06.357Z,12.65
2023-03-16T23:50:36.712Z,12.70
2023-03-16T23:53:04.159Z,12.64
2023-03-16T23:55:31.731Z,12.68
2023-03-16T23:57:59.168Z,12.99
